Weather

Rainfall Maps have ended for the season and will begin again on June 1st.

*Note: Some stations are located near irrigated fields and may also report irrigation

Forrest Carberry Wawanesa Glenboro Glenora Treherne Holland Gladstone Portage East High Bluff Oakland Elm Creek Carman Winkler Kuhl Farm Morris St.Adolphe Steinbach Selkirk Shilo Rivers Somerset Reinland Altona Starbuck St.Pierre Winkler Kane Brunkild Austin Bagot Elie Kenton Neepawa St. Claude




Portage E - Historical Weather Data
Date Max Temp (°C) Min Temp (°C) Avg Temp (°C) Rain (mm) Avg RH (%) Solar Radiation (W/m2)
11/23/2021 3.9 -8.1 -2.2 0.0 80.0 4.7
11/22/2021 -5.2 -11.6 -7.8 0.0 80.0 3.2
11/21/2021 -0.8 -13.7 -9.9 0.0 69.0 6.8
11/20/2021 4.0 -6.6 -1.6 0.0 72.0 6.4
11/19/2021 0.4 -7.4 -4.3 0.0 83.0 4.7
11/18/2021 -3.2 -11.5 -5.8 0.0 84.0 4.0
11/17/2021 1.5 -5.2 -2.4 0.1 80.0 2.8
11/16/2021 5.1 -1.4 1.0 0.3 89.0 3.1
11/15/2021 -1.3 -4.8 -3.7 0.0 100.0 3.5
11/14/2021 -3.0 -9.2 -5.2 0.0 98.0 3.6
11/13/2021 -3.7 -6.9 -4.5 3.2 100.0 2.4
11/12/2021 -1.8 -4.4 -2.8 0.3 89.0 4.2
11/11/2021 0.4 -3.4 -0.6 4.4 100.0 1.7
11/10/2021 3.7 -3.0 0.4 5.5 86.0 1.1
11/9/2021 9.1 -3.8 2.1 0.0 55.0 7.7
11/8/2021 10.3 0.0 4.6 0.0 50.0 8.1
11/7/2021 10.4 -1.6 6.0 0.0 71.0 6.4
11/6/2021 16.4 3.9 8.7 0.0 65.0 7.3
11/5/2021 11.2 1.1 5.8 0.0 87.0 4.5
11/4/2021 13.8 -6.3 3.5 0.0 73.0 8.3
11/3/2021 9.6 -7.5 -0.1 0.0 68.0 8.9
11/2/2021 4.5 -3.0 0.2 0.0 70.0 7.7
11/1/2021 4.4 -2.6 0.8 0.0 78.0 6.7
10/31/2021 3.9 0.4 2.1 0.0 73.0 2.7
10/30/2021 9.2 2.9 6.0 0.9 77.0 8.4
10/29/2021 11.9 -2.3 5.8 0.0 71.0 3.3
10/28/2021 11.3 2.9 6.3 0.0 89.0 4.9
10/27/2021 9.8 4.8 8.1 3.7 86.0 1.3
10/26/2021 11.6 4.4 7.8 0.0 63.0 3.0
10/25/2021 10.0 -5.1 2.3 0.0 81.0 9.6
10/24/2021 6.0 -4.1 1.3 0.0 87.0 4.0
10/23/2021 5.9 2.3 3.9 0.0 76.0 2.9
10/22/2021 5.4 -4.9 1.0 0.0 89.0 4.5
10/21/2021 6.6 -4.3 0.5 0.0 86.0 9.3
10/20/2021 6.1 -2.4 1.9 0.0 74.0 11.2
10/19/2021 11.3 2.3 7.0 0.0 71.0 8.6
10/18/2021 21.2 3.4 11.7 0.0 78.0 10.6
10/17/2021 21.5 0.8 11.3 0.0 68.0 11.5
10/16/2021 17.0 3.2 9.2 0.0 59.0 11.8
10/15/2021 11.2 5.3 7.2 0.5 80.0 7.7
10/14/2021 11.3 6.1 9.0 6.5 98.0 4.9
10/13/2021 10.1 3.0 7.2 24.0 96.0 0.7
10/12/2021 10.1 2.0 6.1 0.0 71.0 9.7
10/11/2021 16.1 4.3 10.3 0.0 70.0 12.9
10/10/2021 10.7 9.3 10.2 20.7 100.0 1.2
10/9/2021 13.3 2.7 8.8 0.0 94.0 6.1
10/8/2021 15.8 7.4 12.5 2.9 90.0 4.2
10/7/2021 25.0 12.4 18.3 0.0 75.0 11.3
10/6/2021 30.9 8.6 19.7 0.0 56.0 13.4
10/5/2021 30.4 8.1 20.2 0.0 48.0 13.0
10/4/2021 26.2 6.6 16.2 0.0 51.0 13.8
10/3/2021 24.8 4.2 14.3 0.0 73.0 13.2
10/2/2021 23.7 2.9 12.7 0.0 79.0 14.7
10/1/2021 18.5 7.4 11.9 0.0 93.0 8.8
9/30/2021 20.0 9.9 15.9 0.0 91.0 11.3
9/29/2021 29.1 15.9 21.3 7.4 64.0 11.8
9/28/2021 29.4 7.4 18.4 0.0 67.0 14.8
9/27/2021 24.8 3.9 14.7 0.0 69.0 14.2
9/26/2021 20.4 7.0 13.9 0.0 67.0 15.5
9/25/2021 25.8 8.0 15.4 0.0 50.0 11.5
9/24/2021 16.5 5.8 11.4 0.0 50.0 12.2
9/23/2021 23.2 9.4 17.0 0.0 54.0 14.1
9/22/2021 25.4 4.5 15.4 0.0 59.0 15.8
9/21/2021 21.3 5.5 12.1 0.0 68.0 17.1
9/20/2021 19.4 10.2 14.6 1.2 79.0 10.3
9/19/2021 29.6 16.1 21.2 0.0 62.0 14.6
9/18/2021 27.8 6.1 18.1 0.0 54.0 15.8
9/17/2021 18.1 6.7 11.6 0.0 61.0 17.6
9/16/2021 18.0 9.4 12.4 4.0 79.0 3.7
9/15/2021 26.6 6.2 16.3 0.0 65.0 10.6
9/14/2021 23.5 8.0 15.1 0.0 63.0 16.8
9/13/2021 21.1 11.7 16.1 0.0 70.0 9.1
9/12/2021 20.7 9.6 14.3 0.0 65.0 17.7
9/11/2021 18.8 9.1 13.6 0.0 72.0 15.8
9/10/2021 29.6 9.7 18.7 0.4 70.0 17.2
9/9/2021 24.1 7.4 15.2 0.0 79.0 14.4
9/8/2021 21.8 10.8 16.3 0.0 71.0 19.7
9/7/2021 24.7 13.1 18.4 0.0 57.0 16.8
9/6/2021 24.4 11.9 17.5 0.0 69.0 13.1
9/5/2021 20.0 10.6 14.7 0.0 81.0 17.2
9/4/2021 20.8 12.3 15.9 0.0 83.0 14.8
9/3/2021 22.8 9.9 16.4 0.0 79.0 16.7
9/2/2021 21.3 13.1 18.5 11.8 92.0 3.6
9/1/2021 27.0 11.9 20.0 0.0 74.0 17.9
8/31/2021 26.3 9.2 18.0 0.0 75.0 20.6
8/30/2021 25.7 8.8 17.2 0.0 76.0 20.8
8/29/2021 21.1 11.9 16.5 0.4 84.0 12.3
8/28/2021 24.5 15.3 18.5 0.0 87.0 17.2
8/27/2021 17.9 8.6 13.5 12.9 98.0 5.6
8/26/2021 18.8 4.7 12.4 0.0 82.0 17.3
8/25/2021 17.4 8.3 13.4 0.0 82.0 18.3
8/24/2021 17.0 11.7 14.4 1.1 100.0 5.3
8/23/2021 18.4 11.9 15.8 0.0 95.0 8.2
8/22/2021 21.0 8.3 14.7 13.9 96.0 6.4
8/21/2021 19.8 9.8 14.5 13.9 91.0 10.6
8/20/2021 15.9 13.1 14.8 20.9 100.0 3.1
8/19/2021 18.5 14.9 16.4 0.0 97.0 5.8
8/18/2021 27.1 16.5 20.1 0.0 67.0 18.5
8/17/2021 25.8 19.9 22.4 0.0 70.0 14.1
8/16/2021 36.0 15.4 26.5 0.0 65.0 17.6
8/15/2021 36.8 16.6 27.2 0.0 52.0 20.3
8/14/2021 33.2 9.9 21.9 0.0 58.0 24.1
8/13/2021 24.1 6.5 15.2 0.0 66.0 24.6
8/12/2021 19.5 8.8 15.1 0.0 65.0 20.3
8/11/2021 23.4 13.3 17.9 0.0 69.0 19.6
8/10/2021 25.0 15.4 18.9 7.2 86.0 15.6
8/9/2021 23.3 17.5 19.4 12.4 98.0 3.9
8/8/2021 35.7 17.9 26.2 0.0 67.0 22.7
8/7/2021 30.6 9.6 20.3 0.0 72.0 21.6
8/6/2021 26.3 7.5 17.4 0.0 74.0 21.5
8/5/2021 21.6 11.9 19.1 0.0 84.0 10.5
8/4/2021 27.5 21.1 24.3 0.0 61.0 8.4
8/3/2021 33.0 16.7 24.7 0.0 57.0 19.7
8/2/2021 30.8 13.2 22.1 0.0 62.0 18.4
8/1/2021 28.4 10.3 19.6 0.0 62.0 22.1
7/31/2021 25.1 14.6 20.2 0.0 67.0 23.6
7/30/2021 31.1 14.8 22.9 0.0 61.0 19.2
7/29/2021 28.8 12.0 21.0 0.0 69.0 25.0
7/28/2021 27.3 16.2 22.0 0.0 69.0 20.9
7/27/2021 30.4 10.7 21.2 0.0 70.0 24.0
7/26/2021 26.9 14.5 20.9 0.2 71.0 15.8
7/25/2021 29.3 16.0 22.6 0.0 50.0 26.2
7/24/2021 28.3 16.4 22.7 0.0 47.0 26.3
7/23/2021 31.0 19.5 25.2 0.0 69.0 24.6
7/22/2021 30.4 17.9 23.8 0.0 91.0 21.2
7/21/2021 25.5 18.5 21.4 1.1 100.0 9.7
7/20/2021 21.7 16.6 18.8 0.7 100.0 4.3
7/19/2021 26.7 17.5 20.3 5.0 96.0 8.2
7/18/2021 34.3 16.9 25.6 0.0 66.0 23.4
7/17/2021 32.1 15.0 23.7 0.0 70.0 22.2
7/16/2021 32.5 17.2 26.1 0.0 56.0 25.1
7/15/2021 31.7 12.1 23.2 0.0 65.0 24.9
7/14/2021 27.6 12.8 20.4 0.0 64.0 24.9
7/13/2021 25.1 16.0 20.5 0.0 71.0 23.6
7/12/2021 27.9 16.8 23.4 0.0 64.0 19.4
7/11/2021 34.3 16.4 26.4 0.0 58.0 26.3
7/10/2021 32.9 17.4 25.1 0.0 61.0 26.6
7/9/2021 29.6 12.3 22.0 0.0 65.0 23.2
7/8/2021 27.1 9.7 18.6 0.0 72.0 22.2
7/7/2021 22.6 6.4 15.9 0.0 67.0 22.1
7/6/2021 17.8 10.6 14.3 0.0 72.0 14.4
7/5/2021 23.0 14.9 20.0 0.0 75.0 23.5
7/4/2021 29.6 17.6 24.2 0.0 78.0 24.1
7/3/2021 35.2 16.1 26.6 0.0 59.0 24.3
7/2/2021 35.3 13.4 25.7 0.0 58.0 28.1
7/1/2021 32.0 13.1 23.7 0.0 55.0 28.4
6/30/2021 30.9 19.2 25.1 0.0 59.0 26.6
6/29/2021 30.6 12.4 22.2 0.0 68.0 25.2
6/28/2021 24.2 13.6 18.9 0.0 75.0 30.0
6/27/2021 23.1 13.1 17.8 4.4 91.0 10.2
6/26/2021 26.1 15.6 21.1 0.0 74.0 27.5
6/25/2021 27.8 16.5 21.1 0.0 63.0 24.5
6/24/2021 26.2 13.5 20.0 0.0 60.0 24.8
6/23/2021 29.6 16.1 23.7 0.0 47.0 18.3
6/22/2021 25.2 9.0 18.3 0.0 52.0 23.1
6/21/2021 17.5 5.9 11.7 1.4 67.0 20.8
6/20/2021 18.4 10.4 15.6 0.0 64.0 24.7
6/19/2021 23.5 9.3 17.4 0.0 68.0 17.1
6/18/2021 20.2 11.1 16.7 0.0 60.0 19.7
6/17/2021 28.7 16.1 22.8 0.0 39.0 29.7
6/16/2021 33.2 14.3 23.2 0.0 58.0 22.9
6/15/2021 29.2 10.6 21.0 0.0 60.0 29.8
6/14/2021 27.2 13.6 21.5 0.0 50.0 30.1
6/13/2021 27.2 13.9 21.2 0.5 57.0 29.6
6/12/2021 26.8 15.6 20.9 0.0 53.0 29.9
6/11/2021 23.6 16.0 18.3 11.4 90.0 15.8
6/10/2021 20.1 16.6 17.9 0.0 100.0 9.1
6/9/2021 22.9 17.0 19.2 39.0 94.0 7.0
6/8/2021 30.2 12.3 22.7 0.0 50.0 23.4
6/7/2021 24.3 9.8 18.6 0.1 56.0 21.0
6/6/2021 26.2 16.5 21.7 6.7 60.0 18.1
6/5/2021 36.7 12.8 25.2 0.9 54.0 26.6
6/4/2021 35.3 18.6 27.1 0.0 43.0 28.6
6/3/2021 30.6 16.4 24.3 0.0 51.0 28.2
6/2/2021 30.9 8.4 21.0 0.0 60.0 25.9
6/1/2021 29.0 13.3 19.9 1.6 43.0 20.3
5/31/2021 25.8 2.3 15.3 0.0 55.0 29.6
5/30/2021 19.4 8.8 13.8 0.0 58.0 20.1
5/29/2021 25.1 10.2 17.4 0.0 42.0 23.3
5/28/2021 21.4 1.4 12.6 0.0 36.0 28.7
5/27/2021 14.7 -1.9 6.7 0.0 52.0 30.5
5/26/2021 7.0 0.2 3.3 4.8 77.0 18.6
5/25/2021 15.8 3.7 11.1 2.1 79.0 9.4
5/24/2021 26.3 10.3 17.3 1.0 73.0 25.3
5/23/2021 13.2 6.9 9.8 0.0 100.0 6.2
5/22/2021 9.2 3.1 6.0 15.8 96.0 12.3
5/21/2021 9.1 4.5 6.4 14.4 98.0 5.3
5/20/2021 16.2 7.1 9.8 0.3 72.0 8.4
5/19/2021 24.0 16.2 20.5 1.5 59.0 17.1
5/18/2021 28.6 14.8 22.9 0.0 44.0 22.9
5/17/2021 31.7 8.7 20.9 0.0 42.0 26.1
5/16/2021 29.0 9.7 20.0 0.0 44.0 20.2
5/15/2021 25.1 3.3 14.4 0.9 62.0 21.5
5/14/2021 23.3 5.5 15.1 0.7 51.0 20.5
5/13/2021 23.2 2.9 15.1 0.0 40.0 18.7
5/12/2021 24.9 4.0 15.3 0.0 24.0 25.8
5/11/2021 21.1 -3.7 10.6 0.0 39.0 27.7
5/10/2021 13.2 -3.1 5.5 0.0 52.0 27.3
5/9/2021 11.3 -2.6 5.4 0.0 50.0 27.8
5/8/2021 12.3 -2.9 6.1 0.0 46.0 27.6
5/7/2021 12.6 -2.7 5.5 0.0 51.0 27.6
5/6/2021 11.8 -2.0 5.9 0.0 45.0 23.9
5/5/2021 10.2 -4.1 3.7 0.0 50.0 27.3
5/4/2021 8.8 -2.2 4.2 0.0 55.0 27.1
5/3/2021 8.1 1.1 3.8 0.0 73.0 20.3
5/2/2021 7.9 1.0 4.7 1.7 83.0 6.6
5/1/2021 22.3 2.1 13.2 0.0 42.0 16.4
11/15/2020 -1.3 -12.1 -6.6 0.0 80.0 4.2
11/14/2020 4.2 -5.8 -0.5 0.0 85.0 5.5
11/13/2020 -1.7 -18.6 -9.2 0.0 83.0 7.4
11/12/2020 -7.3 -19.1 -11.0 0.4 81.0 4.6
11/11/2020 -2.2 -14.9 -8.3 0.3 81.0 4.1
11/10/2020 -4.1 -13.5 -9.4 0.0 73.0 7.8
11/9/2020 0.5 -7.9 -5.5 0.0 67.0 4.1
11/8/2020 3.0 -0.9 1.3 0.0 96.0 0.9
11/7/2020 2.9 -4.5 -0.8 0.0 85.0 5.8
11/6/2020 13.8 -2.9 0.6 0.0 89.0 4.3
11/5/2020 16.2 -3.1 5.7 0.0 77.0 3.1
11/4/2020 18.9 -1.8 6.9 0.0 63.0 7.7
11/3/2020 19.0 3.9 11.2 0.0 52.0 8.9
11/2/2020 16.5 1.0 8.4 0.0 58.0 8.4
11/1/2020 4.5 -9.5 -1.6 0.0 67.0 8.4
10/31/2020 7.8 -4.3 0.4 0.0 76.0 2.7
10/30/2020 3.0 -10.4 -2.6 0.0 97.0 5.0
10/29/2020 -1.4 -9.9 -4.0 0.0 84.0 4.9
10/28/2020 2.9 -5.0 -1.5 4.7 89.0 6.3
10/27/2020 3.9 -6.7 -1.6 0.6 83.0 2.6
10/26/2020 -1.5 -5.9 -4.0 0.0 62.0 9.1
10/25/2020 -1.4 -5.5 -3.9 0.0 68.0 5.5
10/24/2020 -1.6 -6.9 -3.9 0.0 64.0 5.5
10/23/2020 0.5 -7.8 -3.5 0.0 75.0 6.4
10/22/2020 1.2 -5.6 -2.1 0.0 84.0 6.4
10/21/2020 0.2 -3.4 -1.4 0.3 98.0 3.6
10/20/2020 2.4 -11.4 -4.4 0.8 81.0 4.0
10/19/2020 2.4 -6.0 -2.2 0.0 62.0 8.5
10/18/2020 2.2 -5.2 -1.4 0.0 57.0 7.1
10/17/2020 2.9 -7.1 -2.1 0.0 54.0 9.8
10/16/2020 2.9 -6.3 -2.3 0.0 50.0 10.3
10/15/2020 4.9 -3.6 0.1 0.0 54.0 8.6
10/14/2020 8.9 -2.1 4.3 2.4 66.0 9.5
10/13/2020 15.4 5.2 9.8 0.0 44.0 10.9
10/12/2020 14.0 3.9 9.2 0.0 50.0 11.8
10/11/2020 20.9 8.5 13.6 0.0 58.0 6.0
10/10/2020 13.3 1.7 6.5 0.0 73.0 8.2
10/9/2020 15.3 3.6 10.2 0.0 65.0 11.1
10/8/2020 17.1 -0.6 8.6 0.0 68.0 8.2
10/7/2020 13.8 4.2 9.3 0.0 74.0 10.0
10/6/2020 19.8 7.4 12.7 2.1 66.0 11.1
10/5/2020 20.1 8.7 14.5 0.3 57.0 10.5
10/4/2020 17.6 2.8 11.2 0.1 57.0 9.8
10/3/2020 12.1 -4.0 4.4 0.0 73.0 12.7
10/2/2020 9.1 -2.3 3.6 0.0 74.0 12.1
10/1/2020 7.4 -0.8 4.5 2.6 83.0 9.3
9/30/2020 12.1 6.0 8.8 2.5 75.0 8.0
9/29/2020 20.1 7.6 12.6 1.9 70.0 10.4
9/28/2020 12.4 7.4 9.5 0.0 81.0 8.0
9/27/2020 14.0 10.1 11.9 0.0 74.0 5.9
9/26/2020 23.3 9.2 16.5 0.5 54.0 10.9
9/25/2020 24.9 11.1 17.6 0.6 62.0 15.4
9/24/2020 21.4 1.0 11.8 1.7 83.0 12.0
9/23/2020 15.4 5.4 10.7 1.3 88.0 3.1
9/22/2020 31.0 6.9 18.3 0.0 57.0 15.8
9/21/2020 23.3 13.5 18.8 0.0 59.0 8.7
9/20/2020 24.5 11.6 17.5 0.0 72.0 10.0
9/19/2020 25.2 2.4 13.9 0.0 72.0 17.0
9/18/2020 23.4 0.3 10.8 0.0 62.0 12.4
9/17/2020 14.3 -3.1 4.5 0.0 70.0 11.7
9/16/2020 12.3 0.1 7.8 0.5 73.0 14.5
9/15/2020 15.3 10.4 12.8 0.0 79.0 9.4
9/14/2020 16.2 1.2 9.5 0.0 75.0 9.6
9/13/2020 14.2 3.1 10.4 0.2 78.0 15.8
9/12/2020 19.8 8.9 14.0 0.0 70.0 17.2
9/11/2020 24.0 7.2 15.1 0.0 56.0 18.7
9/10/2020 24.4 7.6 15.3 0.0 53.0 19.2
9/9/2020 17.3 1.3 9.1 0.0 59.0 18.3
9/8/2020 11.3 1.7 6.1 0.0 79.0 13.1
9/7/2020 9.6 2.6 7.0 2.0 80.0 13.2
9/6/2020 19.9 9.4 15.0 3.9 75.0 15.0
9/5/2020 26.6 6.7 16.7 0.0 65.0 16.1
9/4/2020 19.6 8.6 13.6 0.0 65.0 20.0
9/3/2020 19.0 8.7 13.4 0.9 67.0 21.1
9/2/2020 19.4 10.4 13.7 8.1 78.0 10.5
9/1/2020 22.0 6.2 13.8 0.0 64.0 9.8
8/31/2020 16.6 7.1 12.0 0.0 74.0 16.7
8/30/2020 18.6 10.7 14.2 8.6 92.0 4.1
8/29/2020 24.6 11.6 17.4 0.0 68.0 21.4
8/28/2020 22.8 14.7 18.2 6.4 75.0 18.3
8/27/2020 26.3 10.9 19.3 0.0 74.0 17.0
8/26/2020 22.8 14.0 19.3 0.0 81.0 17.1
8/25/2020 28.7 12.1 20.1 0.0 75.0 12.4
8/24/2020 30.7 11.3 20.7 0.0 67.0 22.5
8/23/2020 24.3 13.3 18.6 0.0 87.0 11.1
8/22/2020 23.9 16.2 20.5 0.0 91.0 12.1
8/21/2020 30.5 15.7 23.4 0.0 83.0 15.8
8/20/2020 30.8 16.2 23.1 0.3 79.0 22.0
8/19/2020 31.4 16.3 24.4 2.7 75.0 22.4
8/18/2020 34.0 13.0 22.8 0.0 74.0 23.2
8/17/2020 25.9 9.0 17.8 0.0 74.0 24.2
8/16/2020 23.0 12.6 18.0 0.0 67.0 24.1
8/15/2020 25.1 12.4 18.6 0.0 67.0 21.7
8/14/2020 19.1 14.0 16.9 3.0 97.0 5.1
8/13/2020 24.6 16.6 19.1 40.3 96.0 7.8
8/12/2020 31.3 10.0 21.2 0.0 67.0 23.2
8/11/2020 27.7 13.1 20.5 0.0 51.0 25.0
8/10/2020 27.4 13.7 20.3 0.0 45.0 25.6
8/9/2020 25.5 13.2 20.0 1.1 63.0 17.0
8/8/2020 28.5 15.6 22.0 0.0 58.0 25.1
8/7/2020 25.5 14.3 20.7 0.0 94.0 15.3
8/6/2020 29.6 16.5 23.0 0.0 72.0 24.0
8/5/2020 28.3 11.5 20.6 0.0 76.0 25.2
8/4/2020 26.2 10.3 18.7 0.0 69.0 22.8
8/3/2020 26.2 9.1 18.5 0.0 69.0 26.6
8/2/2020 24.8 11.5 18.7 0.0 69.0 26.4
8/1/2020 24.9 13.1 19.5 0.0 71.0 25.9
7/31/2020 26.3 16.6 21.8 0.0 78.0 22.1
7/30/2020 29.2 14.0 22.0 0.0 79.0 25.3
7/29/2020 27.6 10.6 20.1 0.0 76.0 26.3
7/28/2020 25.6 15.0 20.7 0.0 68.0 27.4
7/27/2020 26.7 15.3 20.8 0.0 66.0 23.6
7/26/2020 26.1 14.1 20.9 0.0 61.0 26.9
7/25/2020 32.3 20.5 25.7 6.7 78.0 22.8
7/24/2020 32.1 20.1 25.6 0.1 84.0 23.0
7/23/2020 24.8 13.9 19.0 5.4 94.0 11.5
7/22/2020 25.9 10.7 19.4 0.0 73.0 26.9
7/21/2020 25.0 13.4 19.2 0.0 79.0 20.8
7/20/2020 23.6 8.7 17.2 0.0 78.0 19.1
7/19/2020 23.6 12.8 18.2 0.0 73.0 24.6
7/18/2020 22.7 14.8 19.7 0.3 85.0 10.8
7/17/2020 27.7 13.9 19.7 2.8 84.0 14.1
7/16/2020 27.1 16.8 21.7 0.1 61.0 27.5
7/15/2020 26.7 14.9 20.6 0.0 57.0 22.7
7/14/2020 24.5 13.9 18.8 0.7 63.0 26.9
7/13/2020 25.1 17.1 20.7 7.4 90.0 10.6
7/12/2020 29.6 14.2 22.8 0.0 74.0 24.9
7/11/2020 26.6 14.6 21.3 0.0 71.0 25.1
7/10/2020 25.8 15.5 20.9 0.0 70.0 25.6
7/9/2020 25.8 15.7 20.4 0.0 68.0 20.8
7/8/2020 27.9 17.5 22.1 2.7 72.0 28.4
7/7/2020 30.1 16.2 23.1 0.0 64.0 28.7
7/6/2020 27.2 17.6 22.5 0.0 69.0 28.4
7/5/2020 28.2 19.5 23.5 7.4 87.0 19.6
7/4/2020 27.9 19.1 23.0 3.5 86.0 18.4
7/3/2020 32.4 17.6 26.1 1.7 63.0 26.6
7/2/2020 32.7 16.4 24.9 0.0 81.0 26.4
7/1/2020 27.5 19.0 22.6 8.3 82.0 22.9
6/30/2020 31.9 19.4 25.3 12.9 80.0 21.1
6/29/2020 32.1 19.8 25.9 0.0 69.0 27.2
6/28/2020 33.6 20.9 26.0 0.0 65.0 22.6
6/27/2020 34.8 15.6 26.3 0.0 50.0 28.7
6/26/2020 30.6 15.3 22.7 0.0 65.0 29.5
6/25/2020 28.6 17.8 22.1 1.6 67.0 15.6
6/24/2020 28.4 9.9 20.6 0.0 61.0 29.5
6/23/2020 25.8 11.3 18.9 0.0 65.0 25.1
6/22/2020 20.6 12.6 16.2 0.0 82.0 18.2
6/21/2020 18.6 10.4 13.5 0.8 89.0 11.4
6/20/2020 22.3 10.7 16.5 1.1 72.0 18.6
6/19/2020 22.0 8.2 14.3 0.0 63.0 22.9
6/18/2020 23.1 8.8 13.2 0.0 96.0 7.3
6/17/2020 30.4 19.5 26.5 2.0 58.0 22.4
6/16/2020 30.8 9.7 22.8 0.0 53.0 18.8
6/15/2020 29.1 14.6 23.4 0.0 50.0 23.8
6/14/2020 28.3 14.3 21.1 0.0 55.0 23.1
6/13/2020 24.8 6.9 17.1 0.0 50.0 29.9
6/12/2020 19.6 6.7 13.7 0.0 55.0 29.8
6/11/2020 18.6 8.3 13.4 0.0 76.0 27.6
6/10/2020 20.8 11.0 15.0 1.0 70.0 25.1
6/9/2020 17.2 13.8 15.2 0.0 85.0 7.0
6/8/2020 25.9 15.2 20.1 0.0 91.0 18.1
6/7/2020 24.9 12.1 17.5 13.0 93.0 17.5
6/6/2020 15.9 5.8 11.7 7.2 79.0 8.3
6/5/2020 17.9 9.3 13.5 0.0 67.0 26.3
6/4/2020 25.6 12.0 18.9 0.0 40.0 29.6
6/3/2020 30.8 7.9 20.7 0.0 50.0 25.9
6/2/2020 28.7 12.8 20.6 0.0 45.0 21.6
6/1/2020 31.2 16.9 24.1 0.0 41.0 28.1
5/31/2020 26.2 10.1 19.4 0.0 35.0 29.1
5/30/2020 22.1 0.0 12.3 0.0 51.0 29.4
5/29/2020 13.0 6.4 9.9 0.0 74.0 15.7
5/28/2020 16.9 9.2 11.3 0.8 67.0 11.3
5/27/2020 23.6 14.5 18.9 0.0 46.0 28.9
5/26/2020 23.1 12.2 17.4 0.0 64.0 13.6
5/25/2020 19.8 10.7 15.2 0.0 70.0 23.3
5/24/2020 17.3 11.7 14.3 0.0 87.0 12.3
5/23/2020 26.3 11.9 18.4 19.5 80.0 16.8
5/22/2020 28.6 16.1 21.9 0.0 63.0 27.4
5/21/2020 25.2 14.2 18.7 0.0 72.0 12.2
5/20/2020 27.4 10.9 19.5 0.0 63.0 26.1
5/19/2020 26.9 11.8 19.8 0.0 42.0 25.4
5/18/2020 26.0 10.7 18.7 0.0 39.0 25.1
5/17/2020 25.3 3.8 16.6 0.0 47.0 27.7
5/16/2020 20.1 2.9 11.8 0.2 60.0 27.1
5/15/2020 11.0 1.2 5.7 0.0 76.0 27.2
5/14/2020 11.4 2.2 6.9 2.0 94.0 8.8
5/13/2020 7.4 0.3 5.3 0.3 80.0 2.9
5/12/2020 12.1 -5.3 4.3 0.0 46.0 28.4
5/11/2020 5.9 -6.2 0.6 0.0 50.0 28.8
5/10/2020 5.2 -2.3 1.8 0.0 54.0 27.6
5/9/2020 7.7 1.1 3.8 0.0 55.0 25.1
5/8/2020 7.7 -4.8 2.2 0.0 61.0 25.7
5/7/2020 6.7 -2.7 1.9 0.0 54.0 28.2
5/6/2020 10.9 0.8 6.2 0.0 56.0 25.0
5/5/2020 14.2 3.8 9.0 0.0 67.0 21.2
5/4/2020 11.4 -1.1 5.4 0.0 73.0 15.8
5/3/2020 9.6 -1.1 2.8 0.0 75.0 22.6
5/2/2020 11.6 0.9 6.4 0.0 72.0 19.7
5/1/2020 16.6 10.6 13.4 2.5 75.0 6.0